sensor_id;sensor_type;location;lat;lon;timestamp;temperature;humidity
30150;DHT22;16962;48.646;9.026;2023-05-10T00:01:40;12.20;99.90
30150;DHT22;16962;48.646;9.026;2023-05-10T00:04:27;12.20;99.90
30150;DHT22;16962;48.646;9.026;2023-05-10T00:07:14;12.20;99.90
30150;DHT22;16962;48.646;9.026;2023-05-10T00:10:04;12.20;99.90
30150;DHT22;16962;48.646;9.026;2023-05-10T00:12:51;12.20;99.90
30150;DHT22;16962;48.646;9.026;2023-05-10T00:15:41;12.20;99.90
30150;DHT22;16962;48.646;9.026;2023-05-10T00:18:33;12.20;99.90
30150;DHT22;16962;48.646;9.026;2023-05-10T00:21:21;12.10;99.90
30150;DHT22;16962;48.646;9.026;2023-05-10T00:24:11;12.10;99.90
30150;DHT22;16962;48.646;9.026;2023-05-10T00:26:59;12.10;99.90
30150;DHT22;16962;48.646;9.026;2023-05-10T00:29:47;12.00;99.90
30150;DHT22;16962;48.646;9.026;2023-05-10T00:32:35;12.00;99.90
30150;DHT22;16962;48.646;9.026;2023-05-10T00:35:24;12.00;99.90
30150;DHT22;16962;48.646;9.026;2023-05-10T00:38:16;12.00;99.90
30150;DHT22;16962;48.646;9.026;2023-05-10T00:41:03;12.00;99.90
30150;DHT22;16962;48.646;9.026;2023-05-10T00:43:51;12.00;99.90
30150;DHT22;16962;48.646;9.026;2023-05-10T00:46:41;11.90;99.90
30150;DHT22;16962;48.646;9.026;2023-05-10T00:49:28;11.90;99.90
30150;DHT22;16962;48.646;9.026;2023-05-10T00:52:16;11.90;99.90
30150;DHT22;16962;48.646;9.026;2023-05-10T00:55:04;11.80;99.90
30150;DHT22;16962;48.646;9.026;2023-05-10T00:57:53;11.70;99.90
30150;DHT22;16962;48.646;9.026;2023-05-10T01:00:42;11.70;99.90
30150;DHT22;16962;48.646;9.026;2023-05-10T01:03:32;11.60;99.90
30150;DHT22;16962;48.646;9.026;2023-05-10T01:06:23;11.60;99.90
30150;DHT22;16962;48.646;9.026;2023-05-10T01:09:12;11.60;99.90
30150;DHT22;16962;48.646;9.026;2023-05-10T01:12:00;11.60;99.90
30150;DHT22;16962;48.646;9.026;2023-05-10T01:14:48;11.60;99.90
30150;DHT22;16962;48.646;9.026;2023-05-10T01:17:38;11.50;99.90
30150;DHT22;16962;48.646;9.026;2023-05-10T01:20:32;11.50;99.90
30150;DHT22;16962;48.646;9.026;2023-05-10T01:42:35;11.50;99.90
30150;DHT22;16962;48.646;9.026;2023-05-10T01:45:45;11.50;99.90
30150;DHT22;16962;48.646;9.026;2023-05-10T01:48:34;11.40;99.90
30150;DHT22;16962;48.646;9.026;2023-05-10T01:51:23;11.40;99.90
30150;DHT22;16962;48.646;9.026;2023-05-10T01:54:32;11.40;99.90
30150;DHT22;16962;48.646;9.026;2023-05-10T01:57:26;11.40;99.90
30150;DHT22;16962;48.646;9.026;2023-05-10T02:00:14;11.30;99.90
30150;DHT22;16962;48.646;9.026;2023-05-10T02:03:05;11.40;99.90
30150;DHT22;16962;48.646;9.026;2023-05-10T02:05:55;11.30;99.90
30150;DHT22;16962;48.646;9.026;2023-05-10T02:08:43;11.20;99.90
30150;DHT22;16962;48.646;9.026;2023-05-10T02:11:38;11.20;99.90
30150;DHT22;16962;48.646;9.026;2023-05-10T02:14:28;11.20;99.90
30150;DHT22;16962;48.646;9.026;2023-05-10T02:17:16;11.20;99.90
30150;DHT22;16962;48.646;9.026;2023-05-10T02:20:14;11.20;99.90
30150;DHT22;16962;48.646;9.026;2023-05-10T02:23:03;11.20;99.90
30150;DHT22;16962;48.646;9.026;2023-05-10T02:25:51;11.20;99.90
30150;DHT22;16962;48.646;9.026;2023-05-10T02:28:44;11.20;99.90
30150;DHT22;16962;48.646;9.026;2023-05-10T02:31:35;11.10;99.90
30150;DHT22;16962;48.646;9.026;2023-05-10T02:34:26;11.10;99.90
30150;DHT22;16962;48.646;9.026;2023-05-10T02:37:15;11.10;99.90
30150;DHT22;16962;48.646;9.026;2023-05-10T02:40:03;11.10;99.90
30150;DHT22;16962;48.646;9.026;2023-05-10T02:42:52;11.00;99.90
30150;DHT22;16962;48.646;9.026;2023-05-10T02:45:42;11.00;99.90
30150;DHT22;16962;48.646;9.026;2023-05-10T02:48:30;11.00;99.90
30150;DHT22;16962;48.646;9.026;2023-05-10T02:51:25;11.10;99.90
30150;DHT22;16962;48.646;9.026;2023-05-10T02:54:29;11.10;99.90
30150;DHT22;16962;48.646;9.026;2023-05-10T02:57:28;11.10;99.90
30150;DHT22;16962;48.646;9.026;2023-05-10T03:00:21;11.00;99.90
30150;DHT22;16962;48.646;9.026;2023-05-10T03:03:09;11.10;99.90
30150;DHT22;16962;48.646;9.026;2023-05-10T03:05:58;11.10;99.90
30150;DHT22;16962;48.646;9.026;2023-05-10T03:08:45;11.10;99.90
30150;DHT22;16962;48.646;9.026;2023-05-10T03:12:03;11.10;99.90
30150;DHT22;16962;48.646;9.026;2023-05-10T03:18:59;11.00;99.90
30150;DHT22;16962;48.646;9.026;2023-05-10T03:21:13;11.10;99.90
30150;DHT22;16962;48.646;9.026;2023-05-10T03:24:08;11.00;99.90
30150;DHT22;16962;48.646;9.026;2023-05-10T03:26:56;11.10;99.90
30150;DHT22;16962;48.646;9.026;2023-05-10T03:29:51;11.00;99.90
30150;DHT22;16962;48.646;9.026;2023-05-10T03:32:39;11.00;99.90
30150;DHT22;16962;48.646;9.026;2023-05-10T03:35:27;11.00;99.90
30150;DHT22;16962;48.646;9.026;2023-05-10T03:38:14;10.90;99.90
30150;DHT22;16962;48.646;9.026;2023-05-10T03:41:01;10.90;99.90
30150;DHT22;16962;48.646;9.026;2023-05-10T03:43:53;11.00;99.90
30150;DHT22;16962;48.646;9.026;2023-05-10T03:46:43;11.00;99.90
30150;DHT22;16962;48.646;9.026;2023-05-10T03:49:33;11.00;99.90
30150;DHT22;16962;48.646;9.026;2023-05-10T03:52:20;10.90;99.90
30150;DHT22;16962;48.646;9.026;2023-05-10T03:55:07;10.90;99.90
30150;DHT22;16962;48.646;9.026;2023-05-10T03:57:57;10.90;99.90
30150;DHT22;16962;48.646;9.026;2023-05-10T04:00:45;10.90;99.90
30150;DHT22;16962;48.646;9.026;2023-05-10T04:03:33;10.90;99.90
30150;DHT22;16962;48.646;9.026;2023-05-10T04:06:22;10.80;99.90
30150;DHT22;16962;48.646;9.026;2023-05-10T04:09:09;10.80;99.90
30150;DHT22;16962;48.646;9.026;2023-05-10T04:11:56;10.90;99.90
30150;DHT22;16962;48.646;9.026;2023-05-10T04:14:44;10.80;99.90
30150;DHT22;16962;48.646;9.026;2023-05-10T04:17:31;10.90;99.90
30150;DHT22;16962;48.646;9.026;2023-05-10T04:20:21;10.90;99.90
30150;DHT22;16962;48.646;9.026;2023-05-10T04:23:08;10.90;99.90
30150;DHT22;16962;48.646;9.026;2023-05-10T04:26:01;10.90;99.90
30150;DHT22;16962;48.646;9.026;2023-05-10T04:28:51;10.90;99.90
30150;DHT22;16962;48.646;9.026;2023-05-10T04:31:38;10.90;99.90
30150;DHT22;16962;48.646;9.026;2023-05-10T04:34:26;10.90;99.90
30150;DHT22;16962;48.646;9.026;2023-05-10T04:37:16;10.90;99.90
30150;DHT22;16962;48.646;9.026;2023-05-10T04:40:04;11.00;99.90
30150;DHT22;16962;48.646;9.026;2023-05-10T04:42:52;11.00;99.90
30150;DHT22;16962;48.646;9.026;2023-05-10T04:45:39;10.90;99.90
30150;DHT22;16962;48.646;9.026;2023-05-10T04:48:26;11.00;99.90
30150;DHT22;16962;48.646;9.026;2023-05-10T04:51:14;11.00;99.90
30150;DHT22;16962;48.646;9.026;2023-05-10T04:54:01;11.00;99.90
30150;DHT22;16962;48.646;9.026;2023-05-10T04:56:52;11.00;99.90
30150;DHT22;16962;48.646;9.026;2023-05-10T04:59:40;11.00;99.90
30150;DHT22;16962;48.646;9.026;2023-05-10T05:02:29;11.00;99.90
30150;DHT22;16962;48.646;9.026;2023-05-10T05:05:19;11.10;99.90
30150;DHT22;16962;48.646;9.026;2023-05-10T05:08:06;11.10;99.90
30150;DHT22;16962;48.646;9.026;2023-05-10T05:10:56;11.10;99.90
30150;DHT22;16962;48.646;9.026;2023-05-10T05:13:44;11.10;99.90
30150;DHT22;16962;48.646;9.026;2023-05-10T05:16:31;11.20;99.90
30150;DHT22;16962;48.646;9.026;2023-05-10T05:31:23;11.30;99.90
30150;DHT22;16962;48.646;9.026;2023-05-10T05:34:10;11.30;99.90
30150;DHT22;16962;48.646;9.026;2023-05-10T05:36:57;11.30;99.90
30150;DHT22;16962;48.646;9.026;2023-05-10T05:39:45;11.30;99.90
30150;DHT22;16962;48.646;9.026;2023-05-10T05:42:32;11.40;99.90
30150;DHT22;16962;48.646;9.026;2023-05-10T05:45:22;11.40;99.90
30150;DHT22;16962;48.646;9.026;2023-05-10T05:48:10;11.40;99.90
30150;DHT22;16962;48.646;9.026;2023-05-10T05:51:02;11.50;99.90
30150;DHT22;16962;48.646;9.026;2023-05-10T05:53:52;11.50;99.90
30150;DHT22;16962;48.646;9.026;2023-05-10T05:56:40;11.60;99.90
30150;DHT22;16962;48.646;9.026;2023-05-10T05:59:28;11.70;99.90
30150;DHT22;16962;48.646;9.026;2023-05-10T06:02:15;11.80;99.90
30150;DHT22;16962;48.646;9.026;2023-05-10T06:05:02;11.80;99.90
30150;DHT22;16962;48.646;9.026;2023-05-10T06:07:49;11.70;99.90
30150;DHT22;16962;48.646;9.026;2023-05-10T06:10:37;11.70;99.90
30150;DHT22;16962;48.646;9.026;2023-05-10T06:13:24;11.80;99.90
30150;DHT22;16962;48.646;9.026;2023-05-10T06:16:14;11.80;99.90
30150;DHT22;16962;48.646;9.026;2023-05-10T06:19:02;11.90;99.90
30150;DHT22;16962;48.646;9.026;2023-05-10T06:21:51;11.90;99.90
30150;DHT22;16962;48.646;9.026;2023-05-10T06:24:39;12.10;99.90
30150;DHT22;16962;48.646;9.026;2023-05-10T06:27:27;12.20;99.90
30150;DHT22;16962;48.646;9.026;2023-05-10T06:30:14;12.20;99.90
30150;DHT22;16962;48.646;9.026;2023-05-10T06:33:03;12.20;99.90
30150;DHT22;16962;48.646;9.026;2023-05-10T06:35:51;12.20;99.90
30150;DHT22;16962;48.646;9.026;2023-05-10T06:38:39;12.30;99.90
30150;DHT22;16962;48.646;9.026;2023-05-10T06:41:26;12.30;99.90
30150;DHT22;16962;48.646;9.026;2023-05-10T06:44:17;12.30;99.90
30150;DHT22;16962;48.646;9.026;2023-05-10T06:47:07;12.30;99.90
30150;DHT22;16962;48.646;9.026;2023-05-10T06:49:54;12.20;99.90
30150;DHT22;16962;48.646;9.026;2023-05-10T06:52:42;12.30;99.90
30150;DHT22;16962;48.646;9.026;2023-05-10T06:55:30;12.40;99.90
30150;DHT22;16962;48.646;9.026;2023-05-10T06:58:17;12.50;99.90
30150;DHT22;16962;48.646;9.026;2023-05-10T07:01:06;12.60;99.90
30150;DHT22;16962;48.646;9.026;2023-05-10T07:03:58;12.70;99.90
30150;DHT22;16962;48.646;9.026;2023-05-10T07:06:46;12.70;99.90
30150;DHT22;16962;48.646;9.026;2023-05-10T07:09:33;12.60;99.90
30150;DHT22;16962;48.646;9.026;2023-05-10T07:12:20;12.70;99.90
30150;DHT22;16962;48.646;9.026;2023-05-10T07:15:08;12.80;99.90
30150;DHT22;16962;48.646;9.026;2023-05-10T07:17:55;12.80;99.90
30150;DHT22;16962;48.646;9.026;2023-05-10T07:20:45;12.90;99.90
30150;DHT22;16962;48.646;9.026;2023-05-10T07:23:32;12.90;99.90
30150;DHT22;16962;48.646;9.026;2023-05-10T07:26:22;12.90;99.90
30150;DHT22;16962;48.646;9.026;2023-05-10T07:29:12;13.00;99.90
30150;DHT22;16962;48.646;9.026;2023-05-10T07:31:59;13.00;99.90
30150;DHT22;16962;48.646;9.026;2023-05-10T07:34:47;12.90;99.90
30150;DHT22;16962;48.646;9.026;2023-05-10T07:37:36;12.90;99.90
30150;DHT22;16962;48.646;9.026;2023-05-10T07:40:23;12.90;99.90
30150;DHT22;16962;48.646;9.026;2023-05-10T07:43:13;13.00;22.50
30150;DHT22;16962;48.646;9.026;2023-05-10T07:46:00;12.80;1.00
30150;DHT22;16962;48.646;9.026;2023-05-10T07:48:48;12.90;1.00
30150;DHT22;16962;48.646;9.026;2023-05-10T07:51:35;12.90;99.90
30150;DHT22;16962;48.646;9.026;2023-05-10T07:54:22;13.10;1.00
30150;DHT22;16962;48.646;9.026;2023-05-10T07:57:10;13.10;99.90
30150;DHT22;16962;48.646;9.026;2023-05-10T08:00:02;13.20;99.90
30150;DHT22;16962;48.646;9.026;2023-05-10T08:02:49;13.20;38.50
30150;DHT22;16962;48.646;9.026;2023-05-10T08:05:40;13.30;99.90
30150;DHT22;16962;48.646;9.026;2023-05-10T08:08:27;13.40;99.90
30150;DHT22;16962;48.646;9.026;2023-05-10T08:11:18;13.40;38.70
30150;DHT22;16962;48.646;9.026;2023-05-10T08:14:05;13.50;99.90
30150;DHT22;16962;48.646;9.026;2023-05-10T08:16:53;13.60;99.90
30150;DHT22;16962;48.646;9.026;2023-05-10T08:19:40;13.70;99.90
30150;DHT22;16962;48.646;9.026;2023-05-10T08:22:27;13.90;1.00
30150;DHT22;16962;48.646;9.026;2023-05-10T08:25:17;14.00;99.90
30150;DHT22;16962;48.646;9.026;2023-05-10T08:28:08;14.10;1.20
30150;DHT22;16962;48.646;9.026;2023-05-10T08:30:57;13.90;1.00
30150;DHT22;16962;48.646;9.026;2023-05-10T08:33:47;13.90;99.90
30150;DHT22;16962;48.646;9.026;2023-05-10T08:36:35;14.00;99.90
30150;DHT22;16962;48.646;9.026;2023-05-10T08:39:23;14.30;99.90
30150;DHT22;16962;48.646;9.026;2023-05-10T08:42:19;14.60;99.90
30150;DHT22;16962;48.646;9.026;2023-05-10T08:45:09;14.80;89.50
30150;DHT22;16962;48.646;9.026;2023-05-10T08:48:01;14.90;1.00
30150;DHT22;16962;48.646;9.026;2023-05-10T08:50:48;15.00;1.00
30150;DHT22;16962;48.646;9.026;2023-05-10T08:53:39;14.80;1.00
30150;DHT22;16962;48.646;9.026;2023-05-10T08:56:26;14.80;99.90
30150;DHT22;16962;48.646;9.026;2023-05-10T08:59:14;14.80;99.90
30150;DHT22;16962;48.646;9.026;2023-05-10T09:02:02;14.90;99.90
30150;DHT22;16962;48.646;9.026;2023-05-10T09:04:51;14.80;99.90
30150;DHT22;16962;48.646;9.026;2023-05-10T09:07:39;14.70;99.90
30150;DHT22;16962;48.646;9.026;2023-05-10T09:10:27;14.60;99.90
30150;DHT22;16962;48.646;9.026;2023-05-10T09:13:15;14.50;99.90
30150;DHT22;16962;48.646;9.026;2023-05-10T09:16:04;14.60;99.90
30150;DHT22;16962;48.646;9.026;2023-05-10T09:19:09;14.70;99.90
30150;DHT22;16962;48.646;9.026;2023-05-10T09:21:56;15.00;99.90
30150;DHT22;16962;48.646;9.026;2023-05-10T09:24:44;15.20;99.90
30150;DHT22;16962;48.646;9.026;2023-05-10T09:27:33;15.40;99.90
30150;DHT22;16962;48.646;9.026;2023-05-10T09:33:12;15.70;99.90
30150;DHT22;16962;48.646;9.026;2023-05-10T09:36:07;16.10;99.90
30150;DHT22;16962;48.646;9.026;2023-05-10T09:38:57;16.40;9.70
30150;DHT22;16962;48.646;9.026;2023-05-10T09:41:45;16.60;1.00
30150;DHT22;16962;48.646;9.026;2023-05-10T09:44:33;16.90;1.00
30150;DHT22;16962;48.646;9.026;2023-05-10T09:47:23;17.10;1.00
30150;DHT22;16962;48.646;9.026;2023-05-10T09:50:12;16.70;1.00
30150;DHT22;16962;48.646;9.026;2023-05-10T09:53:05;16.40;1.00
30150;DHT22;16962;48.646;9.026;2023-05-10T09:55:54;16.20;1.00
30150;DHT22;16962;48.646;9.026;2023-05-10T09:58:42;16.10;1.00
30150;DHT22;16962;48.646;9.026;2023-05-10T10:01:31;15.80;1.00
30150;DHT22;16962;48.646;9.026;2023-05-10T10:04:20;15.60;1.00
30150;DHT22;16962;48.646;9.026;2023-05-10T10:07:08;15.40;1.00
30150;DHT22;16962;48.646;9.026;2023-05-10T10:09:56;15.50;1.00
30150;DHT22;16962;48.646;9.026;2023-05-10T10:12:44;15.90;1.00
30150;DHT22;16962;48.646;9.026;2023-05-10T10:15:34;16.50;1.00
30150;DHT22;16962;48.646;9.026;2023-05-10T10:18:22;17.10;1.00
30150;DHT22;16962;48.646;9.026;2023-05-10T10:21:15;17.00;1.00
30150;DHT22;16962;48.646;9.026;2023-05-10T10:24:14;17.20;1.00
30150;DHT22;16962;48.646;9.026;2023-05-10T10:27:24;17.30;99.90
30150;DHT22;16962;48.646;9.026;2023-05-10T10:37:05;19.20;99.90
30150;DHT22;16962;48.646;9.026;2023-05-10T10:39:55;18.50;99.90
30150;DHT22;16962;48.646;9.026;2023-05-10T10:42:50;17.90;99.90
30150;DHT22;16962;48.646;9.026;2023-05-10T10:45:39;17.60;99.90
30150;DHT22;16962;48.646;9.026;2023-05-10T10:48:28;16.10;99.90
30150;DHT22;16962;48.646;9.026;2023-05-10T10:51:15;15.00;99.90
30150;DHT22;16962;48.646;9.026;2023-05-10T10:54:11;14.10;99.90
30150;DHT22;16962;48.646;9.026;2023-05-10T10:57:27;13.30;99.90
30150;DHT22;16962;48.646;9.026;2023-05-10T11:00:26;12.60;1.00
30150;DHT22;16962;48.646;9.026;2023-05-10T11:03:15;12.20;1.00
30150;DHT22;16962;48.646;9.026;2023-05-10T11:06:08;12.10;74.20
30150;DHT22;16962;48.646;9.026;2023-05-10T11:08:55;12.10;99.90
30150;DHT22;16962;48.646;9.026;2023-05-10T11:11:51;12.20;99.90
30150;DHT22;16962;48.646;9.026;2023-05-10T11:14:42;12.40;99.90
30150;DHT22;16962;48.646;9.026;2023-05-10T11:17:30;12.50;99.90
30150;DHT22;16962;48.646;9.026;2023-05-10T11:20:18;12.60;99.90
30150;DHT22;16962;48.646;9.026;2023-05-10T11:23:13;12.60;1.00
30150;DHT22;16962;48.646;9.026;2023-05-10T11:26:02;12.80;1.00
30150;DHT22;16962;48.646;9.026;2023-05-10T11:28:53;13.00;1.00
30150;DHT22;16962;48.646;9.026;2023-05-10T11:31:44;13.50;1.00
30150;DHT22;16962;48.646;9.026;2023-05-10T11:34:32;14.00;99.90
30150;DHT22;16962;48.646;9.026;2023-05-10T11:37:22;14.50;99.90
30150;DHT22;16962;48.646;9.026;2023-05-10T11:40:10;14.90;95.30
30150;DHT22;16962;48.646;9.026;2023-05-10T11:42:57;15.40;1.00
30150;DHT22;16962;48.646;9.026;2023-05-10T11:45:48;15.80;1.00
30150;DHT22;16962;48.646;9.026;2023-05-10T11:48:41;16.00;1.00
30150;DHT22;16962;48.646;9.026;2023-05-10T11:51:34;15.80;1.00
30150;DHT22;16962;48.646;9.026;2023-05-10T11:54:23;15.70;1.00
30150;DHT22;16962;48.646;9.026;2023-05-10T11:57:10;16.10;1.00
30150;DHT22;16962;48.646;9.026;2023-05-10T11:59:59;16.00;1.00
30150;DHT22;16962;48.646;9.026;2023-05-10T12:02:47;15.80;99.90
30150;DHT22;16962;48.646;9.026;2023-05-10T12:05:41;15.30;99.90
30150;DHT22;16962;48.646;9.026;2023-05-10T12:08:31;15.30;99.90
30150;DHT22;16962;48.646;9.026;2023-05-10T12:11:25;15.60;99.90
30150;DHT22;16962;48.646;9.026;2023-05-10T12:14:18;15.90;99.90
30150;DHT22;16962;48.646;9.026;2023-05-10T12:17:12;15.20;99.90
30150;DHT22;16962;48.646;9.026;2023-05-10T12:23:03;14.70;99.90
30150;DHT22;16962;48.646;9.026;2023-05-10T12:25:53;14.50;99.90
30150;DHT22;16962;48.646;9.026;2023-05-10T12:28:49;14.30;99.90
30150;DHT22;16962;48.646;9.026;2023-05-10T12:31:50;14.00;99.90
30150;DHT22;16962;48.646;9.026;2023-05-10T12:34:46;14.20;99.90
30150;DHT22;16962;48.646;9.026;2023-05-10T12:37:33;14.50;99.90
30150;DHT22;16962;48.646;9.026;2023-05-10T12:40:29;14.90;99.90
30150;DHT22;16962;48.646;9.026;2023-05-10T12:43:16;15.50;99.90
30150;DHT22;16962;48.646;9.026;2023-05-10T12:46:14;15.70;99.90
30150;DHT22;16962;48.646;9.026;2023-05-10T12:49:09;15.50;99.90
30150;DHT22;16962;48.646;9.026;2023-05-10T12:51:59;15.80;99.90
30150;DHT22;16962;48.646;9.026;2023-05-10T12:54:47;15.60;99.90
30150;DHT22;16962;48.646;9.026;2023-05-10T12:57:34;15.40;99.90
30150;DHT22;16962;48.646;9.026;2023-05-10T13:00:21;15.40;99.90
30150;DHT22;16962;48.646;9.026;2023-05-10T13:03:10;15.40;99.90
30150;DHT22;16962;48.646;9.026;2023-05-10T13:06:02;15.40;99.90
30150;DHT22;16962;48.646;9.026;2023-05-10T13:08:52;15.30;99.90
30150;DHT22;16962;48.646;9.026;2023-05-10T13:11:44;15.60;99.90
30150;DHT22;16962;48.646;9.026;2023-05-10T13:14:48;15.80;99.90
30150;DHT22;16962;48.646;9.026;2023-05-10T13:17:42;16.00;99.90
30150;DHT22;16962;48.646;9.026;2023-05-10T13:20:32;15.90;99.90
30150;DHT22;16962;48.646;9.026;2023-05-10T13:23:27;15.90;99.90
30150;DHT22;16962;48.646;9.026;2023-05-10T13:26:25;15.70;99.90
30150;DHT22;16962;48.646;9.026;2023-05-10T13:29:13;15.60;99.90
30150;DHT22;16962;48.646;9.026;2023-05-10T13:32:04;15.90;99.90
30150;DHT22;16962;48.646;9.026;2023-05-10T13:34:51;15.90;99.90
30150;DHT22;16962;48.646;9.026;2023-05-10T13:37:39;16.20;99.90
30150;DHT22;16962;48.646;9.026;2023-05-10T13:40:26;16.20;99.90
30150;DHT22;16962;48.646;9.026;2023-05-10T13:43:16;16.20;99.90
30150;DHT22;16962;48.646;9.026;2023-05-10T13:46:06;16.50;99.90
30150;DHT22;16962;48.646;9.026;2023-05-10T13:48:54;16.90;99.90
30150;DHT22;16962;48.646;9.026;2023-05-10T13:51:42;16.80;99.90
30150;DHT22;16962;48.646;9.026;2023-05-10T13:54:36;16.40;99.90
30150;DHT22;16962;48.646;9.026;2023-05-10T13:57:24;15.90;99.90
30150;DHT22;16962;48.646;9.026;2023-05-10T14:00:11;15.70;99.90
30150;DHT22;16962;48.646;9.026;2023-05-10T14:02:59;15.40;99.90
30150;DHT22;16962;48.646;9.026;2023-05-10T14:05:49;15.30;99.90
30150;DHT22;16962;48.646;9.026;2023-05-10T14:08:37;15.40;99.90
30150;DHT22;16962;48.646;9.026;2023-05-10T14:11:24;15.40;99.90
30150;DHT22;16962;48.646;9.026;2023-05-10T14:14:14;15.50;99.90
30150;DHT22;16962;48.646;9.026;2023-05-10T14:17:03;15.80;99.90
30150;DHT22;16962;48.646;9.026;2023-05-10T14:19:51;16.10;99.90
30150;DHT22;16962;48.646;9.026;2023-05-10T14:22:54;16.40;99.90
30150;DHT22;16962;48.646;9.026;2023-05-10T14:25:41;17.00;99.90
30150;DHT22;16962;48.646;9.026;2023-05-10T14:28:29;17.20;99.90
30150;DHT22;16962;48.646;9.026;2023-05-10T14:31:21;17.50;99.90
30150;DHT22;16962;48.646;9.026;2023-05-10T14:34:11;17.30;99.90
30150;DHT22;16962;48.646;9.026;2023-05-10T14:36:59;17.40;99.90
30150;DHT22;16962;48.646;9.026;2023-05-10T14:39:49;17.20;99.90
30150;DHT22;16962;48.646;9.026;2023-05-10T14:42:36;16.70;99.90
30150;DHT22;16962;48.646;9.026;2023-05-10T14:45:24;16.70;99.90
30150;DHT22;16962;48.646;9.026;2023-05-10T14:48:14;16.80;99.90
30150;DHT22;16962;48.646;9.026;2023-05-10T14:51:04;16.50;99.90
30150;DHT22;16962;48.646;9.026;2023-05-10T14:53:52;16.30;99.90
30150;DHT22;16962;48.646;9.026;2023-05-10T14:56:40;16.30;99.90
30150;DHT22;16962;48.646;9.026;2023-05-10T14:59:29;16.50;99.90
30150;DHT22;16962;48.646;9.026;2023-05-10T15:02:17;16.80;99.90
30150;DHT22;16962;48.646;9.026;2023-05-10T15:05:06;16.90;99.90
30150;DHT22;16962;48.646;9.026;2023-05-10T15:07:54;16.80;99.90
30150;DHT22;16962;48.646;9.026;2023-05-10T15:10:42;16.60;99.90
30150;DHT22;16962;48.646;9.026;2023-05-10T15:13:30;16.70;99.90
30150;DHT22;16962;48.646;9.026;2023-05-10T15:16:17;16.90;99.90
30150;DHT22;16962;48.646;9.026;2023-05-10T15:19:05;16.90;99.90
30150;DHT22;16962;48.646;9.026;2023-05-10T15:21:55;16.50;99.90
30150;DHT22;16962;48.646;9.026;2023-05-10T15:24:45;16.50;99.90
30150;DHT22;16962;48.646;9.026;2023-05-10T15:27:37;16.70;99.90
30150;DHT22;16962;48.646;9.026;2023-05-10T15:30:25;16.80;99.90
30150;DHT22;16962;48.646;9.026;2023-05-10T15:33:13;16.80;99.90
30150;DHT22;16962;48.646;9.026;2023-05-10T15:36:00;16.50;99.90
30150;DHT22;16962;48.646;9.026;2023-05-10T15:38:48;16.50;99.90
30150;DHT22;16962;48.646;9.026;2023-05-10T15:41:38;16.60;99.90
30150;DHT22;16962;48.646;9.026;2023-05-10T15:44:33;16.80;99.90
30150;DHT22;16962;48.646;9.026;2023-05-10T15:47:58;16.90;99.90
30150;DHT22;16962;48.646;9.026;2023-05-10T15:50:48;16.70;99.90
30150;DHT22;16962;48.646;9.026;2023-05-10T15:53:35;16.80;99.90
30150;DHT22;16962;48.646;9.026;2023-05-10T15:56:23;16.80;99.90
30150;DHT22;16962;48.646;9.026;2023-05-10T15:59:15;17.10;99.90
30150;DHT22;16962;48.646;9.026;2023-05-10T16:02:02;17.00;99.90
30150;DHT22;16962;48.646;9.026;2023-05-10T16:04:50;16.70;99.90
30150;DHT22;16962;48.646;9.026;2023-05-10T16:07:38;16.30;99.90
30150;DHT22;16962;48.646;9.026;2023-05-10T16:10:26;16.20;99.90
30150;DHT22;16962;48.646;9.026;2023-05-10T16:13:15;16.20;99.90
30150;DHT22;16962;48.646;9.026;2023-05-10T16:16:05;16.20;99.90
30150;DHT22;16962;48.646;9.026;2023-05-10T16:18:56;16.30;99.90
30150;DHT22;16962;48.646;9.026;2023-05-10T16:21:44;16.30;99.90
30150;DHT22;16962;48.646;9.026;2023-05-10T16:24:33;15.80;99.90
30150;DHT22;16962;48.646;9.026;2023-05-10T16:27:27;15.70;99.90
30150;DHT22;16962;48.646;9.026;2023-05-10T16:30:18;15.60;99.90
30150;DHT22;16962;48.646;9.026;2023-05-10T16:33:10;15.50;99.90
30150;DHT22;16962;48.646;9.026;2023-05-10T16:35:57;15.20;99.90
30150;DHT22;16962;48.646;9.026;2023-05-10T16:38:45;14.70;99.90
30150;DHT22;16962;48.646;9.026;2023-05-10T16:41:33;14.20;99.90
30150;DHT22;16962;48.646;9.026;2023-05-10T16:44:21;13.80;99.90
30150;DHT22;16962;48.646;9.026;2023-05-10T16:47:11;13.70;99.90
30150;DHT22;16962;48.646;9.026;2023-05-10T16:50:00;13.70;99.90
30150;DHT22;16962;48.646;9.026;2023-05-10T16:52:48;13.60;99.90
30150;DHT22;16962;48.646;9.026;2023-05-10T16:55:36;13.60;99.90
30150;DHT22;16962;48.646;9.026;2023-05-10T16:58:23;13.70;1.00
30150;DHT22;16962;48.646;9.026;2023-05-10T17:01:11;13.70;1.00
30150;DHT22;16962;48.646;9.026;2023-05-10T17:03:58;13.60;99.90
30150;DHT22;16962;48.646;9.026;2023-05-10T17:06:48;13.50;99.90
30150;DHT22;16962;48.646;9.026;2023-05-10T17:09:36;13.50;99.90
30150;DHT22;16962;48.646;9.026;2023-05-10T17:12:23;13.40;99.90
30150;DHT22;16962;48.646;9.026;2023-05-10T17:15:11;13.50;99.90
30150;DHT22;16962;48.646;9.026;2023-05-10T17:17:59;13.40;99.90
30150;DHT22;16962;48.646;9.026;2023-05-10T17:20:46;13.50;99.90
30150;DHT22;16962;48.646;9.026;2023-05-10T17:23:34;13.50;99.90
30150;DHT22;16962;48.646;9.026;2023-05-10T17:26:21;13.30;1.00
30150;DHT22;16962;48.646;9.026;2023-05-10T17:29:09;13.00;1.00
30150;DHT22;16962;48.646;9.026;2023-05-10T17:31:59;12.80;43.80
30150;DHT22;16962;48.646;9.026;2023-05-10T17:34:49;12.70;99.90
30150;DHT22;16962;48.646;9.026;2023-05-10T17:37:36;12.40;99.90
30150;DHT22;16962;48.646;9.026;2023-05-10T17:40:26;12.30;99.90
30150;DHT22;16962;48.646;9.026;2023-05-10T17:43:13;12.20;99.90
30150;DHT22;16962;48.646;9.026;2023-05-10T17:46:00;12.10;99.90
30150;DHT22;16962;48.646;9.026;2023-05-10T17:48:49;12.00;99.90
30150;DHT22;16962;48.646;9.026;2023-05-10T17:51:37;12.00;99.90
30150;DHT22;16962;48.646;9.026;2023-05-10T17:54:25;12.00;99.90
30150;DHT22;16962;48.646;9.026;2023-05-10T17:57:12;12.00;99.90
30150;DHT22;16962;48.646;9.026;2023-05-10T18:00:02;11.90;99.90
30150;DHT22;16962;48.646;9.026;2023-05-10T18:02:52;11.90;1.00
30150;DHT22;16962;48.646;9.026;2023-05-10T18:05:42;11.90;1.00
30150;DHT22;16962;48.646;9.026;2023-05-10T18:08:36;11.80;1.00
30150;DHT22;16962;48.646;9.026;2023-05-10T18:11:23;11.80;19.20
30150;DHT22;16962;48.646;9.026;2023-05-10T18:14:12;11.70;99.90
30150;DHT22;16962;48.646;9.026;2023-05-10T18:16:59;11.60;99.90
30150;DHT22;16962;48.646;9.026;2023-05-10T18:19:47;11.60;99.90
30150;DHT22;16962;48.646;9.026;2023-05-10T18:22:35;11.60;99.90
30150;DHT22;16962;48.646;9.026;2023-05-10T18:25:25;11.60;1.00
30150;DHT22;16962;48.646;9.026;2023-05-10T18:28:13;11.50;18.40
30150;DHT22;16962;48.646;9.026;2023-05-10T18:31:01;11.40;99.90
30150;DHT22;16962;48.646;9.026;2023-05-10T18:33:48;11.40;99.90
30150;DHT22;16962;48.646;9.026;2023-05-10T18:36:36;11.40;1.00
30150;DHT22;16962;48.646;9.026;2023-05-10T18:39:24;11.30;1.00
30150;DHT22;16962;48.646;9.026;2023-05-10T18:42:12;11.30;99.90